createdAt,value
2019-02-10T00:00:33.519Z,7.60
2019-02-10T00:03:03.967Z,7.60
2019-02-10T00:05:34.698Z,7.60
2019-02-10T00:08:05.443Z,7.60
2019-02-10T00:10:36.212Z,7.60
2019-02-10T00:13:29.404Z,7.60
2019-02-10T00:16:01.012Z,7.60
2019-02-10T00:18:32.379Z,7.60
2019-02-10T00:21:03.117Z,7.60
2019-02-10T00:23:33.558Z,7.60
2019-02-10T00:26:04.311Z,7.60
2019-02-10T00:28:34.782Z,7.60
2019-02-10T00:31:05.212Z,7.60
2019-02-10T00:33:35.652Z,7.60
2019-02-10T00:36:06.089Z,7.50
2019-02-10T00:38:36.606Z,7.50
2019-02-10T00:41:07.061Z,7.50
2019-02-10T00:43:37.501Z,7.50
2019-02-10T00:46:07.939Z,7.50
2019-02-10T00:48:38.389Z,7.60
2019-02-10T00:51:08.889Z,7.60
2019-02-10T00:53:39.323Z,7.60
2019-02-10T00:56:09.774Z,7.60
2019-02-10T00:58:40.227Z,7.60
2019-02-10T01:01:10.673Z,7.60
2019-02-10T01:03:41.192Z,7.60
2019-02-10T01:06:11.636Z,7.60
2019-02-10T01:08:42.084Z,7.70
2019-02-10T01:11:12.518Z,7.70
2019-02-10T01:13:42.981Z,7.70
2019-02-10T01:16:13.446Z,7.70
2019-02-10T01:19:08.779Z,7.70
2019-02-10T01:21:43.666Z,7.70
2019-02-10T01:24:14.140Z,7.70
2019-02-10T01:26:44.842Z,7.70
2019-02-10T01:29:15.718Z,7.60
2019-02-10T01:31:46.226Z,7.60
2019-02-10T01:34:16.666Z,7.60
2019-02-10T01:36:49.742Z,7.60
2019-02-10T01:39:22.106Z,7.50
2019-02-10T01:41:52.572Z,7.50
2019-02-10T01:44:23.018Z,7.40
2019-02-10T01:46:53.442Z,7.40
2019-02-10T01:49:23.886Z,7.40
2019-02-10T01:51:54.336Z,7.30
2019-02-10T01:54:24.790Z,7.30
2019-02-10T01:56:55.252Z,7.30
2019-02-10T01:59:25.967Z,7.30
2019-02-10T02:01:56.467Z,7.30
2019-02-10T02:04:27.995Z,7.30
2019-02-10T02:06:58.442Z,7.30
2019-02-10T02:09:28.867Z,7.20
2019-02-10T02:11:59.300Z,7.20
2019-02-10T02:14:29.986Z,7.20
2019-02-10T02:17:00.418Z,7.20
2019-02-10T02:19:30.975Z,7.20
2019-02-10T02:22:01.419Z,7.20
2019-02-10T02:24:31.874Z,7.10
2019-02-10T02:27:02.330Z,7.10
2019-02-10T02:29:32.778Z,7.10
2019-02-10T02:32:03.223Z,7.00
2019-02-10T02:34:34.355Z,7.00
2019-02-10T02:37:07.972Z,7.00
2019-02-10T02:39:37.726Z,7.00
2019-02-10T02:42:08.162Z,7.00
2019-02-10T02:44:38.617Z,7.00
2019-02-10T02:47:09.481Z,7.00
2019-02-10T02:49:39.925Z,7.00
2019-02-10T02:52:10.721Z,7.00
2019-02-10T02:54:41.146Z,6.90
2019-02-10T02:57:12.022Z,6.90
2019-02-10T02:59:42.814Z,6.80
2019-02-10T03:02:13.279Z,6.80
2019-02-10T03:04:43.713Z,6.80
2019-02-10T03:07:17.984Z,6.70
2019-02-10T03:09:46.557Z,6.70
2019-02-10T03:12:16.997Z,6.70
2019-02-10T03:14:47.432Z,6.60
2019-02-10T03:17:17.870Z,6.60
2019-02-10T03:19:48.336Z,6.60
2019-02-10T03:22:19.186Z,6.60
2019-02-10T03:24:50.087Z,6.60
2019-02-10T03:27:20.518Z,6.60
2019-02-10T03:29:50.990Z,6.50
2019-02-10T03:32:21.434Z,6.50
2019-02-10T03:34:51.880Z,6.50
2019-02-10T03:37:27.202Z,6.50
2019-02-10T03:39:55.823Z,6.50
2019-02-10T03:42:26.538Z,6.50
2019-02-10T03:44:57.004Z,6.50
2019-02-10T03:47:27.439Z,6.50
2019-02-10T03:49:58.195Z,6.60
2019-02-10T03:52:28.631Z,6.50
2019-02-10T03:54:59.062Z,6.50
2019-02-10T03:57:29.859Z,6.50
2019-02-10T04:00:00.333Z,6.60
2019-02-10T04:02:30.758Z,6.60
2019-02-10T04:05:01.200Z,6.60
2019-02-10T04:07:36.173Z,6.60
2019-02-10T04:10:04.084Z,6.60
2019-02-10T04:12:34.524Z,6.70
2019-02-10T04:15:05.377Z,6.70
2019-02-10T04:17:35.801Z,6.70
2019-02-10T04:20:06.288Z,6.70
2019-02-10T04:22:36.985Z,6.70
2019-02-10T04:25:07.485Z,6.80
2019-02-10T04:27:37.922Z,6.80
2019-02-10T04:30:09.266Z,6.80
2019-02-10T04:32:40.083Z,6.80
2019-02-10T04:35:10.536Z,6.90
2019-02-10T04:37:46.099Z,6.90
2019-02-10T04:40:13.589Z,6.90
2019-02-10T04:42:44.019Z,6.90
2019-02-10T04:45:14.479Z,7.00
2019-02-10T04:47:45.244Z,7.00
2019-02-10T04:50:15.697Z,7.00
2019-02-10T04:52:46.518Z,7.00
2019-02-10T04:55:16.959Z,7.00
2019-02-10T04:57:47.386Z,7.00
2019-02-10T05:00:17.816Z,7.00
2019-02-10T05:02:48.253Z,7.00
2019-02-10T05:05:19.051Z,7.00
2019-02-10T05:07:54.460Z,6.90
2019-02-10T05:10:21.895Z,6.90
2019-02-10T05:12:52.367Z,6.90
2019-02-10T05:15:22.848Z,6.90
2019-02-10T05:17:53.273Z,6.90
2019-02-10T05:20:23.715Z,6.80
2019-02-10T05:22:54.434Z,6.80
2019-02-10T05:25:24.874Z,6.80
2019-02-10T05:27:55.602Z,6.70
2019-02-10T05:30:26.031Z,6.70
2019-02-10T05:32:56.853Z,6.70
2019-02-10T05:35:27.298Z,6.60
2019-02-10T05:38:03.955Z,6.60
2019-02-10T05:40:29.886Z,6.60
2019-02-10T05:43:00.328Z,6.50
2019-02-10T05:45:30.778Z,6.50
2019-02-10T05:48:01.210Z,6.50
2019-02-10T05:50:32.621Z,6.60
2019-02-10T05:53:03.064Z,6.50
2019-02-10T05:55:33.526Z,6.50
2019-02-10T05:58:03.961Z,6.60
2019-02-10T06:00:34.426Z,6.60
2019-02-10T06:03:04.856Z,6.60
2019-02-10T06:05:35.328Z,6.60
2019-02-10T06:08:12.924Z,6.60
2019-02-10T06:10:37.898Z,6.70
2019-02-10T06:13:08.883Z,6.70
2019-02-10T06:15:39.314Z,6.80
2019-02-10T06:18:09.790Z,6.80
2019-02-10T06:20:40.238Z,6.90
2019-02-10T06:23:10.687Z,6.90
2019-02-10T06:25:41.121Z,7.00
2019-02-10T06:28:11.566Z,7.00
2019-02-10T06:30:42.028Z,7.10
2019-02-10T06:33:12.452Z,7.10
2019-02-10T06:35:42.921Z,7.20
2019-02-10T06:38:21.900Z,7.30
2019-02-10T06:40:45.846Z,7.30
2019-02-10T06:43:16.270Z,7.40
2019-02-10T06:45:46.983Z,7.40
2019-02-10T06:48:17.432Z,7.40
2019-02-10T06:50:47.878Z,7.50
2019-02-10T06:53:18.319Z,7.50
2019-02-10T06:55:48.817Z,7.50
2019-02-10T06:58:19.254Z,7.50
2019-02-10T07:01:00.388Z,7.50
2019-02-10T07:03:42.799Z,7.50
2019-02-10T07:06:13.786Z,7.50
2019-02-10T07:08:44.498Z,7.50
2019-02-10T07:11:14.929Z,7.50
2019-02-10T07:13:48.023Z,7.50
2019-02-10T07:16:46.315Z,7.40
2019-02-10T07:20:12.259Z,7.40
2019-02-10T07:23:26.613Z,7.40
2019-02-10T07:26:04.697Z,7.40
2019-02-10T07:28:54.371Z,7.40
2019-02-10T07:31:32.479Z,7.40
2019-02-10T07:34:47.923Z,7.50
2019-02-10T07:37:30.063Z,7.50
2019-02-10T07:40:32.767Z,7.50
2019-02-10T07:43:38.493Z,7.50
2019-02-10T07:46:37.039Z,7.60
2019-02-10T07:49:39.610Z,7.60
2019-02-10T07:52:33.846Z,7.60
2019-02-10T07:55:54.646Z,7.60
2019-02-10T07:59:04.429Z,7.70
2019-02-10T08:02:18.005Z,7.80
2019-02-10T08:05:29.457Z,7.80
2019-02-10T08:08:46.298Z,7.90
2019-02-10T08:12:06.874Z,8.00
2019-02-10T08:14:52.329Z,8.00
2019-02-10T08:18:15.207Z,8.10
2019-02-10T08:21:27.178Z,8.20
2019-02-10T08:24:37.280Z,8.30
2019-02-10T08:27:53.478Z,8.30
2019-02-10T08:30:51.639Z,8.40
2019-02-10T08:33:27.060Z,8.40
2019-02-10T08:36:25.841Z,8.40
2019-02-10T08:39:10.314Z,8.50
2019-02-10T08:41:50.782Z,8.60
2019-02-10T08:44:55.093Z,8.60
2019-02-10T08:48:18.614Z,8.70
2019-02-10T08:51:38.496Z,8.80
2019-02-10T08:54:09.554Z,8.90
2019-02-10T08:56:40.436Z,9.10
2019-02-10T08:59:10.956Z,9.20
2019-02-10T09:01:41.714Z,9.30
2019-02-10T09:04:13.139Z,9.40
2019-02-10T09:06:43.570Z,9.50
2019-02-10T09:09:14.382Z,9.60
2019-02-10T09:11:44.874Z,9.60
2019-02-10T09:14:15.631Z,9.70
2019-02-10T09:16:46.175Z,9.70
2019-02-10T09:19:16.640Z,9.70
2019-02-10T09:21:47.385Z,9.70
2019-02-10T09:24:17.874Z,9.70
2019-02-10T09:26:48.334Z,9.60
2019-02-10T09:29:18.787Z,9.70
2019-02-10T09:31:49.314Z,9.70
2019-02-10T09:34:19.774Z,9.80
2019-02-10T09:36:50.319Z,9.90
2019-02-10T09:39:20.772Z,10.00
2019-02-10T09:41:51.271Z,10.00
2019-02-10T09:44:21.714Z,10.10
2019-02-10T09:46:52.462Z,10.10
2019-02-10T09:49:22.921Z,10.20
2019-02-10T09:51:54.409Z,10.30
2019-02-10T09:54:24.934Z,10.40
2019-02-10T09:56:55.441Z,10.50
2019-02-10T09:59:25.897Z,10.60
2019-02-10T10:01:56.722Z,10.70
2019-02-10T10:04:27.343Z,10.80
2019-02-10T10:06:57.822Z,10.90
2019-02-10T10:09:28.316Z,11.00
2019-02-10T10:11:58.794Z,11.10
2019-02-10T10:14:30.901Z,11.10
2019-02-10T10:17:01.697Z,11.10
2019-02-10T10:19:32.194Z,11.20
2019-02-10T10:22:02.799Z,11.10
2019-02-10T10:24:33.246Z,11.00
2019-02-10T10:27:03.702Z,11.00
2019-02-10T10:29:34.162Z,11.00
2019-02-10T10:32:04.605Z,10.90
2019-02-10T10:34:35.054Z,10.90
2019-02-10T10:37:05.522Z,10.90
2019-02-10T10:39:36.341Z,10.90
2019-02-10T10:42:07.161Z,10.90
2019-02-10T10:44:37.634Z,11.00
2019-02-10T10:47:08.062Z,11.10
2019-02-10T10:49:38.518Z,11.10
2019-02-10T10:52:08.966Z,11.20
2019-02-10T10:54:42.887Z,11.30
2019-02-10T10:57:11.645Z,11.50
2019-02-10T10:59:42.093Z,11.70
2019-02-10T11:02:12.541Z,11.80
2019-02-10T11:04:43.005Z,11.90
2019-02-10T11:07:13.519Z,12.00
2019-02-10T11:09:43.995Z,12.00
2019-02-10T11:12:14.469Z,12.00
2019-02-10T11:14:44.993Z,12.00
2019-02-10T11:17:15.759Z,12.00
2019-02-10T11:19:46.530Z,12.10
2019-02-10T11:22:16.986Z,12.10
2019-02-10T11:24:47.444Z,12.10
2019-02-10T11:27:17.914Z,12.10
2019-02-10T11:29:48.797Z,12.10
2019-02-10T11:32:19.258Z,12.10
2019-02-10T11:34:49.714Z,12.10
2019-02-10T11:37:26.691Z,12.10
2019-02-10T11:39:52.633Z,12.10
2019-02-10T11:42:23.159Z,12.10
2019-02-10T11:44:53.591Z,12.10
2019-02-10T11:47:24.049Z,12.10
2019-02-10T11:49:54.489Z,12.10
2019-02-10T11:52:24.994Z,12.10
2019-02-10T11:54:55.456Z,12.10
2019-02-10T11:57:25.910Z,12.20
2019-02-10T11:59:56.367Z,12.20
2019-02-10T12:02:26.850Z,12.20
2019-02-10T12:04:57.303Z,12.20
2019-02-10T12:07:27.742Z,12.20
2019-02-10T12:09:58.217Z,12.00
2019-02-10T12:12:28.741Z,11.90
2019-02-10T12:14:59.530Z,11.90
2019-02-10T12:17:29.971Z,11.80
2019-02-10T12:20:00.443Z,11.70
2019-02-10T12:22:30.891Z,11.70
2019-02-10T12:25:01.331Z,11.60
2019-02-10T12:27:32.519Z,11.50
2019-02-10T12:30:03.252Z,11.50
2019-02-10T12:32:34.848Z,12.00
2019-02-10T12:38:00.443Z,11.50
2019-02-10T12:40:31.331Z,11.50
2019-02-10T12:43:01.778Z,11.50
2019-02-10T12:45:33.399Z,11.40
2019-02-10T12:48:03.855Z,11.40
2019-02-10T12:50:34.387Z,11.40
2019-02-10T12:53:04.850Z,11.40
2019-02-10T12:55:35.322Z,11.30
2019-02-10T12:58:05.785Z,11.40
2019-02-10T13:00:37.909Z,11.40
2019-02-10T13:03:08.482Z,11.40
2019-02-10T13:05:38.926Z,11.50
2019-02-10T13:08:09.382Z,11.50
2019-02-10T13:10:39.834Z,11.50
2019-02-10T13:13:18.969Z,11.60
2019-02-10T13:15:43.372Z,11.60
2019-02-10T13:18:14.369Z,11.70
2019-02-10T13:20:44.802Z,11.70
2019-02-10T13:23:15.483Z,11.90
2019-02-10T13:25:46.862Z,11.90
2019-02-10T13:28:17.997Z,11.90
2019-02-10T13:30:48.787Z,12.00
2019-02-10T13:33:20.003Z,12.00
2019-02-10T13:35:50.894Z,12.00
2019-02-10T13:38:23.504Z,12.00
2019-02-10T13:40:54.239Z,12.00
2019-02-10T13:43:33.195Z,12.00
2019-02-10T13:45:57.597Z,12.00
2019-02-10T13:48:28.042Z,12.00
2019-02-10T13:50:58.491Z,11.90
2019-02-10T13:53:28.930Z,11.90
2019-02-10T13:55:59.466Z,11.90
2019-02-10T13:58:30.291Z,12.00
2019-02-10T14:01:00.758Z,12.00
2019-02-10T14:03:31.213Z,12.00
2019-02-10T14:06:01.650Z,12.00
2019-02-10T14:08:32.092Z,11.90
2019-02-10T14:11:02.550Z,11.90
2019-02-10T14:13:33.079Z,11.90
2019-02-10T14:16:03.527Z,11.90
2019-02-10T14:18:33.991Z,11.90
2019-02-10T14:21:04.434Z,11.90
2019-02-10T14:23:35.172Z,11.90
2019-02-10T14:26:05.650Z,11.90
2019-02-10T14:28:36.450Z,11.90
2019-02-10T14:31:06.933Z,11.90
2019-02-10T14:33:38.955Z,11.90
2019-02-10T14:36:09.735Z,11.90
2019-02-10T14:38:40.198Z,11.90
2019-02-10T14:41:10.642Z,11.90
2019-02-10T14:43:41.156Z,11.80
2019-02-10T14:46:11.888Z,11.80
2019-02-10T14:48:42.354Z,11.90
2019-02-10T14:51:12.816Z,11.80
2019-02-10T14:53:43.634Z,11.80
2019-02-10T14:56:14.067Z,11.90
2019-02-10T14:58:45.252Z,11.90
2019-02-10T15:01:15.686Z,11.90
2019-02-10T15:03:46.126Z,11.90
2019-02-10T15:06:16.587Z,11.90
2019-02-10T15:08:47.051Z,11.80
2019-02-10T15:11:17.770Z,11.80
2019-02-10T15:13:48.248Z,11.90
2019-02-10T15:16:18.683Z,11.90
2019-02-10T15:18:49.486Z,11.90
2019-02-10T15:21:20.006Z,11.80
2019-02-10T15:23:50.484Z,11.90
2019-02-10T15:26:20.940Z,11.90
2019-02-10T15:28:51.411Z,11.80
2019-02-10T15:31:21.859Z,11.80
2019-02-10T15:33:52.655Z,11.70
2019-02-10T15:36:23.086Z,11.70
2019-02-10T15:38:53.526Z,11.60
2019-02-10T15:41:24.006Z,11.50
2019-02-10T15:43:54.834Z,11.40
2019-02-10T15:46:25.258Z,11.30
2019-02-10T15:48:55.714Z,11.20
2019-02-10T15:51:31.561Z,11.10
2019-02-10T15:53:59.394Z,11.00
2019-02-10T15:56:29.830Z,11.00
2019-02-10T15:59:00.282Z,10.90
2019-02-10T16:01:30.734Z,10.70
2019-02-10T16:04:01.551Z,10.30
2019-02-10T16:06:32.000Z,9.90
2019-02-10T16:09:02.689Z,9.50
2019-02-10T16:11:34.747Z,9.10
2019-02-10T16:14:05.223Z,8.70
2019-02-10T16:16:35.936Z,8.50
2019-02-10T16:19:06.401Z,8.10
2019-02-10T16:21:36.860Z,7.80
2019-02-10T16:24:07.339Z,7.50
2019-02-10T16:26:37.788Z,7.40
2019-02-10T16:29:09.486Z,7.30
2019-02-10T16:31:40.250Z,7.20
2019-02-10T16:34:10.745Z,7.10
2019-02-10T16:36:41.224Z,7.10
2019-02-10T16:39:12.826Z,7.00
2019-02-10T16:41:43.270Z,7.00
2019-02-10T16:44:13.754Z,7.00
2019-02-10T16:46:44.236Z,7.00
2019-02-10T16:49:14.698Z,7.00
2019-02-10T16:51:45.158Z,6.90
2019-02-10T16:54:15.625Z,6.90
2019-02-10T16:56:46.170Z,6.90
2019-02-10T16:59:16.624Z,6.80
2019-02-10T17:01:47.163Z,6.80
2019-02-10T17:04:17.673Z,6.80
2019-02-10T17:06:48.148Z,6.80
2019-02-10T17:09:18.910Z,6.90
2019-02-10T17:11:50.042Z,6.80
2019-02-10T17:14:20.604Z,6.80
2019-02-10T17:16:51.053Z,6.80
2019-02-10T17:19:21.598Z,6.90
2019-02-10T17:21:52.102Z,6.90
2019-02-10T17:24:23.018Z,7.00
2019-02-10T17:26:53.486Z,7.00
2019-02-10T17:29:23.998Z,7.00
2019-02-10T17:31:54.469Z,7.00
2019-02-10T17:34:24.954Z,7.00
2019-02-10T17:36:55.456Z,7.00
2019-02-10T17:39:25.955Z,7.00
2019-02-10T17:41:56.463Z,7.10
2019-02-10T17:44:26.908Z,7.10
2019-02-10T17:46:57.367Z,7.10
2019-02-10T17:49:27.842Z,7.10
2019-02-10T17:51:58.835Z,7.10
2019-02-10T17:54:29.302Z,7.10
2019-02-10T17:56:59.750Z,7.10
2019-02-10T17:59:30.276Z,7.10
2019-02-10T18:02:00.813Z,7.10
2019-02-10T18:04:37.345Z,7.10
2019-02-10T18:07:03.451Z,7.10
2019-02-10T18:09:33.925Z,7.10
2019-02-10T18:12:05.517Z,7.00
2019-02-10T18:15:10.423Z,7.00
2019-02-10T18:18:02.701Z,7.10
2019-02-10T18:20:50.944Z,7.10
2019-02-10T18:23:39.406Z,7.10
2019-02-10T18:26:28.913Z,7.10
2019-02-10T18:29:06.779Z,7.20
2019-02-10T18:31:48.252Z,7.10
2019-02-10T18:34:40.642Z,7.20
2019-02-10T18:37:33.278Z,7.20
2019-02-10T18:40:22.886Z,7.20
2019-02-10T18:43:21.495Z,7.20
2019-02-10T18:46:04.013Z,7.30
2019-02-10T18:48:50.567Z,7.30
2019-02-10T18:51:29.579Z,7.30
2019-02-10T18:54:17.848Z,7.30
2019-02-10T18:57:17.051Z,7.30
2019-02-10T18:59:54.234Z,7.30
2019-02-10T19:02:42.758Z,7.20
2019-02-10T19:05:38.509Z,7.10
2019-02-10T19:08:28.039Z,7.10
2019-02-10T19:11:17.731Z,7.00
2019-02-10T19:13:55.073Z,7.00
2019-02-10T19:16:54.013Z,7.00
2019-02-10T19:19:42.161Z,7.00
2019-02-10T19:22:30.739Z,7.00
2019-02-10T19:25:19.533Z,7.10
2019-02-10T19:28:24.127Z,7.10
2019-02-10T19:31:13.658Z,7.10
2019-02-10T19:34:03.442Z,7.10
2019-02-10T19:36:51.865Z,7.10
2019-02-10T19:39:44.413Z,7.10
2019-02-10T19:42:28.011Z,7.10
2019-02-10T19:45:16.273Z,7.00
2019-02-10T19:48:05.778Z,7.00
2019-02-10T19:50:54.527Z,7.00
2019-02-10T19:53:42.931Z,7.10
2019-02-10T19:56:31.046Z,7.00
2019-02-10T19:59:18.364Z,7.00
2019-02-10T20:02:11.020Z,7.00
2019-02-10T20:04:59.146Z,6.90
2019-02-10T20:07:51.670Z,7.00
2019-02-10T20:10:30.162Z,7.00
2019-02-10T20:13:13.097Z,6.90
2019-02-10T20:16:05.672Z,6.90
2019-02-10T20:18:49.516Z,6.80
2019-02-10T20:21:39.074Z,6.80
2019-02-10T20:24:30.226Z,6.80
2019-02-10T20:27:29.960Z,6.80
2019-02-10T20:30:13.958Z,6.80
2019-02-10T20:33:04.022Z,6.70
2019-02-10T20:35:53.586Z,6.50
2019-02-10T20:38:41.937Z,6.30
2019-02-10T20:41:30.978Z,6.20
2019-02-10T20:44:20.477Z,6.10
2019-02-10T20:47:19.249Z,6.00
2019-02-10T20:50:14.713Z,6.00
2019-02-10T20:53:04.350Z,5.90
2019-02-10T20:55:40.817Z,5.80
2019-02-10T20:58:28.936Z,5.80
2019-02-10T21:01:10.485Z,5.70
2019-02-10T21:03:55.310Z,5.70
2019-02-10T21:06:38.215Z,5.60
2019-02-10T21:09:46.219Z,5.60
2019-02-10T21:12:41.609Z,5.50
2019-02-10T21:15:43.410Z,5.50
2019-02-10T21:18:36.122Z,5.50
2019-02-10T21:21:24.755Z,5.50
2019-02-10T21:24:12.891Z,5.50
2019-02-10T21:27:08.241Z,5.40
2019-02-10T21:29:50.879Z,5.40
2019-02-10T21:32:40.384Z,5.40
2019-02-10T21:35:36.218Z,5.40
2019-02-10T21:38:28.815Z,5.40
2019-02-10T21:41:06.414Z,5.40
2019-02-10T21:43:42.929Z,5.40
2019-02-10T21:46:32.718Z,5.40
2019-02-10T21:49:08.692Z,5.40
2019-02-10T21:51:39.158Z,5.50
2019-02-10T21:54:09.744Z,5.40
2019-02-10T21:56:40.235Z,5.40
2019-02-10T21:59:10.711Z,5.40
2019-02-10T22:01:41.185Z,5.40
2019-02-10T22:04:12.945Z,5.40
2019-02-10T22:06:43.437Z,5.40
2019-02-10T22:09:13.904Z,5.50
2019-02-10T22:11:44.385Z,5.50
2019-02-10T22:14:14.822Z,5.60
2019-02-10T22:16:45.625Z,5.60
2019-02-10T22:19:16.092Z,5.60
2019-02-10T22:21:46.565Z,5.60
2019-02-10T22:24:18.105Z,5.60
2019-02-10T22:26:48.585Z,5.60
2019-02-10T22:29:20.010Z,5.60
2019-02-10T22:31:50.798Z,5.60
2019-02-10T22:34:21.581Z,5.40
2019-02-10T22:36:52.758Z,5.40
2019-02-10T22:39:23.250Z,5.30
2019-02-10T22:41:53.750Z,5.30
2019-02-10T22:44:24.239Z,5.20
2019-02-10T22:46:54.744Z,5.10
2019-02-10T22:49:25.210Z,5.00
2019-02-10T22:51:55.767Z,4.90
2019-02-10T22:54:26.627Z,4.90
2019-02-10T22:56:57.492Z,4.80
2019-02-10T22:59:28.294Z,4.80
2019-02-10T23:01:58.806Z,4.70
2019-02-10T23:04:29.399Z,4.70
2019-02-10T23:06:59.888Z,4.60
2019-02-10T23:09:30.365Z,4.60
2019-02-10T23:12:00.835Z,4.50
2019-02-10T23:14:31.271Z,4.50
2019-02-10T23:17:01.740Z,4.50
2019-02-10T23:19:32.178Z,4.50
2019-02-10T23:22:02.635Z,4.50
2019-02-10T23:24:33.183Z,4.50
2019-02-10T23:27:03.681Z,4.60
2019-02-10T23:29:34.294Z,4.60
2019-02-10T23:32:04.813Z,4.60
2019-02-10T23:34:35.582Z,4.60
2019-02-10T23:37:06.647Z,4.60
2019-02-10T23:39:37.102Z,4.50
2019-02-10T23:42:07.583Z,4.60
2019-02-10T23:44:38.066Z,4.60
2019-02-10T23:47:08.838Z,4.60
2019-02-10T23:49:39.297Z,4.60
2019-02-10T23:52:09.910Z,4.60
2019-02-10T23:54:41.969Z,4.60
2019-02-10T23:57:12.496Z,4.60
2019-02-10T23:59:43.256Z,4.70
